Lyster, Canada
Current Conditions -  °F | °C
As of 1:00 AM on Sunday 26 Oct 2014 (Local Time) from CYQB Reporting Station
Rain Showers Rain Showers  
Wind Chill: 36°   Ceiling: 1400
Heat Index: 41°   Visibility: 10mi
Dew Point: 39°   Wind: 8mph
Humidity: 93%   Direction: 60°ENE
Pressure: 29.38"   Gusts: NA
Location:  46.37°N, 71.62°W
Report Text: CYQB 260500Z 06007KT 020V080 10SM -SHRA FEW006 OVC014 05/04 A2938 RMK SF2SC6 SLP953
Loading
Personal Weather Stations






























Interactive Weather Map
Tropical Storm Tracking
New forecast layout! Learn more

10-Day Weather Forecast

Advertisements
Track Severe Weather on mobile